SBI007 UACC-USTR
Flight info
| Callsign | SBI007 |
|---|---|
| Flight time | N/A |
| Altitude | 34000 |
| Route | K0824F340 KOLUR6G KOLUR N170 BEBLU N167 NIBOD M864 LIBMI L165 KEGIR KEGIR1L |
| Aircraft | A320/M-SDE3FGHIRWY/LB1 |
Departure
| Time | N/A |
|---|---|
| Airport | Nursultan Nazarbayev International Airport (UACC) |
Arrival
| Time | 2026-05-01 11:54 |
|---|---|
| Airport | Roshchino International Airport (USTR) |
| Time | Latitude | Longitude | Altitude | Speed | Heading |
|---|---|---|---|---|---|
| 2026-05-01 10:52 | 51.40993 | 71.04326 | 18215 ft | 406 kts | 336° |
| 2026-05-01 10:53 | 51.43641 | 71.02696 | 18708 ft | 409 kts | 336° |
| 2026-05-01 10:53 | 51.46267 | 71.01076 | 19211 ft | 411 kts | 336° |
| 2026-05-01 10:53 | 51.48941 | 70.99424 | 19725 ft | 413 kts | 336° |
| 2026-05-01 10:53 | 51.51629 | 70.97758 | 20240 ft | 415 kts | 336° |
| 2026-05-01 10:54 | 51.54330 | 70.96083 | 20726 ft | 417 kts | 336° |
| 2026-05-01 10:54 | 51.57041 | 70.94394 | 21223 ft | 419 kts | 336° |
| 2026-05-01 10:54 | 51.59766 | 70.92691 | 21696 ft | 421 kts | 336° |
| 2026-05-01 10:54 | 51.62502 | 70.90981 | 22173 ft | 423 kts | 335° |
| 2026-05-01 10:55 | 51.65255 | 70.89265 | 22632 ft | 426 kts | 336° |
| 2026-05-01 10:55 | 51.67987 | 70.87559 | 23092 ft | 428 kts | 335° |
| 2026-05-01 10:55 | 51.70770 | 70.85814 | 23519 ft | 430 kts | 335° |
| 2026-05-01 10:55 | 51.73562 | 70.84062 | 23895 ft | 432 kts | 335° |
| 2026-05-01 10:56 | 51.76368 | 70.82300 | 24252 ft | 434 kts | 335° |
| 2026-05-01 10:56 | 51.79190 | 70.80525 | 24614 ft | 436 kts | 335° |
| 2026-05-01 10:56 | 51.82029 | 70.78739 | 24963 ft | 438 kts | 335° |
| 2026-05-01 10:56 | 51.84881 | 70.76942 | 25314 ft | 441 kts | 335° |
| 2026-05-01 10:57 | 51.87740 | 70.75136 | 25645 ft | 443 kts | 335° |
| 2026-05-01 10:57 | 51.90577 | 70.73343 | 25982 ft | 445 kts | 335° |
| 2026-05-01 10:57 | 51.93469 | 70.71516 | 26327 ft | 447 kts | 335° |
| 2026-05-01 10:57 | 51.96375 | 70.69675 | 26661 ft | 449 kts | 335° |
| 2026-05-01 10:58 | 51.99284 | 70.67792 | 26981 ft | 451 kts | 334° |
| 2026-05-01 10:58 | 52.02163 | 70.65729 | 27302 ft | 453 kts | 332° |
| 2026-05-01 10:58 | 52.05010 | 70.63513 | 27618 ft | 454 kts | 330° |
| 2026-05-01 10:58 | 52.07842 | 70.61209 | 27920 ft | 456 kts | 329° |
| 2026-05-01 10:59 | 52.10639 | 70.58902 | 28214 ft | 458 kts | 329° |
| 2026-05-01 10:59 | 52.13493 | 70.56562 | 28492 ft | 461 kts | 330° |
| 2026-05-01 10:59 | 52.16371 | 70.54238 | 28772 ft | 463 kts | 330° |
| 2026-05-01 10:59 | 52.19267 | 70.51934 | 29050 ft | 465 kts | 330° |
| 2026-05-01 11:00 | 52.22191 | 70.49633 | 29329 ft | 467 kts | 330° |
| 2026-05-01 11:00 | 52.25127 | 70.47329 | 29601 ft | 469 kts | 330° |
| 2026-05-01 11:00 | 52.28072 | 70.45012 | 29904 ft | 470 kts | 330° |
| 2026-05-01 11:00 | 52.31006 | 70.42697 | 30267 ft | 468 kts | 330° |
| 2026-05-01 11:01 | 52.33895 | 70.40407 | 30635 ft | 466 kts | 330° |
| 2026-05-01 11:01 | 52.36801 | 70.38094 | 31012 ft | 464 kts | 329° |
| 2026-05-01 11:01 | 52.39696 | 70.35784 | 31412 ft | 461 kts | 329° |
| 2026-05-01 11:01 | 52.42573 | 70.33482 | 31815 ft | 459 kts | 329° |
| 2026-05-01 11:02 | 52.45431 | 70.31190 | 32219 ft | 456 kts | 329° |
| 2026-05-01 11:02 | 52.48278 | 70.28910 | 32617 ft | 454 kts | 329° |
| 2026-05-01 11:02 | 52.51109 | 70.26639 | 33021 ft | 451 kts | 329° |
| 2026-05-01 11:02 | 52.53919 | 70.24382 | 33424 ft | 449 kts | 328° |
| 2026-05-01 11:03 | 52.56719 | 70.22128 | 33712 ft | 447 kts | 328° |
| 2026-05-01 11:03 | 52.62246 | 70.17667 | 33759 ft | 444 kts | 328° |
| 2026-05-01 11:04 | 52.65022 | 70.15417 | 33761 ft | 444 kts | 328° |
| 2026-05-01 11:04 | 52.73831 | 70.08434 | 33755 ft | 445 kts | 330° |
| 2026-05-01 11:05 | 52.79486 | 70.04255 | 33753 ft | 445 kts | 330° |
| 2026-05-01 11:05 | 52.85104 | 70.00081 | 33751 ft | 446 kts | 329° |
| 2026-05-01 11:06 | 52.90746 | 69.95809 | 33757 ft | 446 kts | 329° |
| 2026-05-01 11:06 | 52.91699 | 69.95083 | 33757 ft | 446 kts | 329° |
| 2026-05-01 11:07 | 53.04780 | 69.85082 | 33752 ft | 447 kts | 329° |
| 2026-05-01 11:07 | 53.10442 | 69.80749 | 33882 ft | 450 kts | 329° |
| 2026-05-01 11:08 | 53.13281 | 69.78568 | 34156 ft | 449 kts | 329° |
| 2026-05-01 11:08 | 53.16117 | 69.76385 | 34456 ft | 448 kts | 329° |
| 2026-05-01 11:08 | 53.21741 | 69.72047 | 34978 ft | 447 kts | 329° |
| 2026-05-01 11:09 | 53.24560 | 69.69872 | 35246 ft | 446 kts | 329° |
| 2026-05-01 11:09 | 53.27376 | 69.67692 | 35527 ft | 446 kts | 329° |
| 2026-05-01 11:09 | 53.30190 | 69.65511 | 35710 ft | 446 kts | 329° |
| 2026-05-01 11:10 | 53.35433 | 69.60273 | 35751 ft | 433 kts | 314° |
| 2026-05-01 11:10 | 53.37579 | 69.56891 | 35765 ft | 427 kts | 306° |
| 2026-05-01 11:10 | 53.41451 | 69.49364 | 35752 ft | 427 kts | 305° |
| 2026-05-01 11:11 | 53.45330 | 69.41831 | 35758 ft | 427 kts | 305° |
| 2026-05-01 11:11 | 53.49206 | 69.34289 | 35753 ft | 427 kts | 305° |
| 2026-05-01 11:12 | 53.53081 | 69.26730 | 35755 ft | 427 kts | 304° |
| 2026-05-01 11:12 | 53.56924 | 69.19195 | 35737 ft | 427 kts | 304° |
| 2026-05-01 11:13 | 53.60782 | 69.11587 | 35734 ft | 427 kts | 304° |
| 2026-05-01 11:13 | 53.64647 | 69.03964 | 35725 ft | 428 kts | 304° |
| 2026-05-01 11:14 | 53.68509 | 68.96324 | 35725 ft | 428 kts | 304° |
| 2026-05-01 11:14 | 53.72341 | 68.88722 | 35710 ft | 428 kts | 304° |
| 2026-05-01 11:15 | 53.76197 | 68.81043 | 35714 ft | 429 kts | 304° |
| 2026-05-01 11:15 | 53.80048 | 68.73340 | 35704 ft | 429 kts | 303° |
| 2026-05-01 11:16 | 53.83947 | 68.65673 | 35714 ft | 431 kts | 305° |
| 2026-05-01 11:16 | 53.87962 | 68.58205 | 35704 ft | 432 kts | 306° |
| 2026-05-01 11:17 | 53.92027 | 68.50693 | 35711 ft | 432 kts | 306° |
| 2026-05-01 11:17 | 53.96064 | 68.43120 | 35700 ft | 433 kts | 305° |
| 2026-05-01 11:18 | 54.00078 | 68.35496 | 35705 ft | 433 kts | 305° |
| 2026-05-01 11:18 | 54.04069 | 68.27894 | 35695 ft | 434 kts | 305° |
| 2026-05-01 11:19 | 54.08094 | 68.20221 | 35706 ft | 435 kts | 305° |
| 2026-05-01 11:19 | 54.12122 | 68.12530 | 35697 ft | 435 kts | 304° |
| 2026-05-01 11:20 | 54.16149 | 68.04822 | 35698 ft | 436 kts | 304° |
| 2026-05-01 11:20 | 54.20157 | 67.97138 | 35693 ft | 436 kts | 304° |
| 2026-05-01 11:21 | 54.24182 | 67.89370 | 35700 ft | 437 kts | 304° |
| 2026-05-01 11:21 | 54.28205 | 67.81574 | 35695 ft | 438 kts | 304° |
| 2026-05-01 11:22 | 54.32232 | 67.73745 | 35707 ft | 438 kts | 304° |
| 2026-05-01 11:22 | 54.36238 | 67.65958 | 35709 ft | 438 kts | 304° |
| 2026-05-01 11:23 | 54.40267 | 67.58113 | 35707 ft | 438 kts | 304° |
| 2026-05-01 11:23 | 54.44286 | 67.50238 | 35692 ft | 438 kts | 304° |
| 2026-05-01 11:24 | 54.48300 | 67.42345 | 35700 ft | 439 kts | 304° |
| 2026-05-01 11:25 | 54.54289 | 67.30518 | 35699 ft | 439 kts | 304° |
| 2026-05-01 11:25 | 54.60314 | 67.18590 | 35705 ft | 440 kts | 303° |
| 2026-05-01 11:26 | 54.66331 | 67.06611 | 35712 ft | 441 kts | 303° |
| 2026-05-01 11:27 | 54.70309 | 66.98634 | 35710 ft | 441 kts | 303° |
| 2026-05-01 11:27 | 54.74319 | 66.90596 | 35712 ft | 443 kts | 305° |
| 2026-05-01 11:28 | 54.78277 | 66.84777 | 35709 ft | 458 kts | 321° |
| 2026-05-01 11:28 | 54.82124 | 66.81423 | 35710 ft | 469 kts | 333° |
| 2026-05-01 11:28 | 54.84170 | 66.80183 | 35704 ft | 471 kts | 334° |
| 2026-05-01 11:29 | 54.94479 | 66.73998 | 35700 ft | 472 kts | 334° |
| 2026-05-01 11:30 | 55.03784 | 66.68363 | 35693 ft | 473 kts | 334° |
| 2026-05-01 11:30 | 55.08946 | 66.65228 | 35698 ft | 473 kts | 334° |
| 2026-05-01 11:31 | 55.15166 | 66.61435 | 35699 ft | 473 kts | 334° |
| 2026-05-01 11:31 | 55.22393 | 66.57015 | 35700 ft | 474 kts | 334° |
| 2026-05-01 11:32 | 55.27567 | 66.53851 | 35697 ft | 474 kts | 334° |
| 2026-05-01 11:32 | 55.33797 | 66.50029 | 35705 ft | 475 kts | 334° |
| 2026-05-01 11:33 | 55.39934 | 66.45883 | 35694 ft | 471 kts | 329° |
| 2026-05-01 11:33 | 55.43887 | 66.42760 | 35520 ft | 470 kts | 328° |
| 2026-05-01 11:33 | 55.45890 | 66.41110 | 35347 ft | 470 kts | 328° |
| 2026-05-01 11:33 | 55.48816 | 66.38680 | 35112 ft | 471 kts | 328° |
| 2026-05-01 11:34 | 55.51787 | 66.36230 | 34868 ft | 472 kts | 328° |
| 2026-05-01 11:34 | 55.54781 | 66.33813 | 34630 ft | 474 kts | 329° |
| 2026-05-01 11:34 | 55.57794 | 66.31432 | 34238 ft | 476 kts | 329° |
| 2026-05-01 11:34 | 55.60859 | 66.29033 | 33071 ft | 487 kts | 329° |
| 2026-05-01 11:35 | 55.63976 | 66.26603 | 32096 ft | 491 kts | 329° |
| 2026-05-01 11:35 | 55.68155 | 66.23335 | 30652 ft | 500 kts | 330° |
| 2026-05-01 11:35 | 55.71339 | 66.20828 | 29808 ft | 501 kts | 330° |
| 2026-05-01 11:35 | 55.74506 | 66.18331 | 29088 ft | 496 kts | 330° |
| 2026-05-01 11:36 | 55.76590 | 66.16685 | 28625 ft | 492 kts | 330° |
| 2026-05-01 11:36 | 55.79698 | 66.14223 | 27935 ft | 487 kts | 330° |
| 2026-05-01 11:36 | 55.82775 | 66.11778 | 27250 ft | 482 kts | 330° |
| 2026-05-01 11:36 | 55.85824 | 66.09342 | 26585 ft | 478 kts | 330° |
| 2026-05-01 11:37 | 55.88838 | 66.06925 | 25914 ft | 474 kts | 330° |
| 2026-05-01 11:37 | 55.91830 | 66.04517 | 25256 ft | 470 kts | 330° |
| 2026-05-01 11:37 | 55.94802 | 66.02120 | 24606 ft | 467 kts | 330° |
| 2026-05-01 11:37 | 55.97758 | 65.99738 | 23964 ft | 465 kts | 330° |
| 2026-05-01 11:38 | 56.00694 | 65.97376 | 23331 ft | 462 kts | 331° |
| 2026-05-01 11:38 | 56.03572 | 65.95056 | 22683 ft | 458 kts | 330° |
| 2026-05-01 11:38 | 56.06459 | 65.92728 | 22118 ft | 452 kts | 331° |
| 2026-05-01 11:38 | 56.09304 | 65.90433 | 21584 ft | 446 kts | 330° |
| 2026-05-01 11:39 | 56.12113 | 65.88158 | 21057 ft | 440 kts | 330° |
| 2026-05-01 11:39 | 56.14889 | 65.85899 | 20549 ft | 435 kts | 330° |
| 2026-05-01 11:39 | 56.17628 | 65.83667 | 20034 ft | 431 kts | 330° |
| 2026-05-01 11:39 | 56.20351 | 65.81444 | 19520 ft | 428 kts | 330° |
| 2026-05-01 11:40 | 56.23051 | 65.79240 | 19004 ft | 424 kts | 330° |
| 2026-05-01 11:40 | 56.25694 | 65.77080 | 18485 ft | 422 kts | 330° |
| 2026-05-01 11:40 | 56.28354 | 65.74899 | 17945 ft | 420 kts | 330° |
| 2026-05-01 11:40 | 56.31009 | 65.72718 | 17360 ft | 417 kts | 330° |
| 2026-05-01 11:41 | 56.33640 | 65.70557 | 16824 ft | 414 kts | 330° |
| 2026-05-01 11:41 | 56.36250 | 65.68411 | 16271 ft | 411 kts | 330° |
| 2026-05-01 11:41 | 56.38848 | 65.66279 | 15734 ft | 409 kts | 331° |
| 2026-05-01 11:41 | 56.41427 | 65.64160 | 15190 ft | 406 kts | 331° |
| 2026-05-01 11:42 | 56.43985 | 65.62050 | 14717 ft | 402 kts | 331° |
| 2026-05-01 11:42 | 56.46519 | 65.59951 | 14185 ft | 400 kts | 331° |
| 2026-05-01 11:42 | 56.48995 | 65.57896 | 13681 ft | 397 kts | 331° |
| 2026-05-01 11:42 | 56.51487 | 65.55828 | 13272 ft | 391 kts | 331° |
| 2026-05-01 11:43 | 56.53951 | 65.53782 | 12716 ft | 388 kts | 331° |
| 2026-05-01 11:43 | 56.56398 | 65.51748 | 12174 ft | 385 kts | 331° |
| 2026-05-01 11:43 | 56.58820 | 65.49732 | 11643 ft | 382 kts | 331° |
| 2026-05-01 11:44 | 56.63641 | 65.45706 | 10556 ft | 381 kts | 332° |
| 2026-05-01 11:44 | 56.66009 | 65.43728 | 10396 ft | 367 kts | 332° |
| 2026-05-01 11:44 | 56.68253 | 65.41857 | 10272 ft | 353 kts | 332° |
| 2026-05-01 11:44 | 56.70447 | 65.40025 | 10151 ft | 341 kts | 332° |
| 2026-05-01 11:45 | 56.72561 | 65.38252 | 10038 ft | 329 kts | 332° |
| 2026-05-01 11:45 | 56.74604 | 65.36532 | 9908 ft | 318 kts | 332° |
| 2026-05-01 11:45 | 56.76594 | 65.34850 | 9671 ft | 313 kts | 332° |
| 2026-05-01 11:45 | 56.78609 | 65.33395 | 9329 ft | 311 kts | 339° |
| 2026-05-01 11:46 | 56.80652 | 65.32164 | 8980 ft | 308 kts | 339° |
| 2026-05-01 11:46 | 56.82672 | 65.30943 | 8517 ft | 303 kts | 339° |
| 2026-05-01 11:46 | 56.84664 | 65.29739 | 7946 ft | 299 kts | 340° |
| 2026-05-01 11:46 | 56.86631 | 65.28555 | 7378 ft | 296 kts | 340° |
| 2026-05-01 11:47 | 56.88546 | 65.27405 | 6817 ft | 293 kts | 340° |
| 2026-05-01 11:47 | 56.90472 | 65.26248 | 6252 ft | 289 kts | 341° |
| 2026-05-01 11:47 | 56.92368 | 65.25109 | 5705 ft | 284 kts | 342° |
| 2026-05-01 11:47 | 56.94230 | 65.23985 | 5145 ft | 279 kts | 343° |
| 2026-05-01 11:48 | 56.96058 | 65.22876 | 4582 ft | 275 kts | 345° |
| 2026-05-01 11:48 | 56.97854 | 65.21785 | 4019 ft | 269 kts | 345° |
| 2026-05-01 11:48 | 56.99561 | 65.20472 | 3626 ft | 265 kts | 333° |
| 2026-05-01 11:48 | 57.00993 | 65.18420 | 3461 ft | 258 kts | 321° |
| 2026-05-01 11:49 | 57.02259 | 65.16276 | 3331 ft | 244 kts | 322° |
| 2026-05-01 11:49 | 57.03479 | 65.14224 | 3228 ft | 232 kts | 323° |
| 2026-05-01 11:49 | 57.04651 | 65.12262 | 3123 ft | 225 kts | 324° |
| 2026-05-01 11:49 | 57.05803 | 65.10423 | 3014 ft | 212 kts | 334° |
| 2026-05-01 11:50 | 57.07120 | 65.09769 | 2856 ft | 189 kts | 12° |
| 2026-05-01 11:50 | 57.08257 | 65.10671 | 2694 ft | 176 kts | 44° |
| 2026-05-01 11:50 | 57.09085 | 65.12296 | 2507 ft | 173 kts | 47° |
| 2026-05-01 11:50 | 57.09868 | 65.13877 | 2322 ft | 165 kts | 47° |
| 2026-05-01 11:51 | 57.10624 | 65.15402 | 2103 ft | 158 kts | 46° |
| 2026-05-01 11:51 | 57.11348 | 65.16860 | 1905 ft | 149 kts | 46° |
| 2026-05-01 11:51 | 57.12026 | 65.18225 | 1735 ft | 142 kts | 45° |
| 2026-05-01 11:51 | 57.12687 | 65.19556 | 1561 ft | 140 kts | 44° |
| 2026-05-01 11:52 | 57.13343 | 65.20878 | 1382 ft | 139 kts | 44° |
| 2026-05-01 11:52 | 57.13993 | 65.22189 | 1196 ft | 140 kts | 44° |
| 2026-05-01 11:52 | 57.14650 | 65.23516 | 1027 ft | 140 kts | 45° |
| 2026-05-01 11:52 | 57.15314 | 65.24860 | 837 ft | 142 kts | 46° |
| 2026-05-01 11:53 | 57.15965 | 65.26182 | 664 ft | 142 kts | 45° |
| 2026-05-01 11:53 | 57.16624 | 65.27515 | 482 ft | 140 kts | 46° |
| 2026-05-01 11:53 | 57.17279 | 65.28827 | 390 ft | 134 kts | 47° |
| 2026-05-01 11:53 | 57.17798 | 65.29877 | 379 ft | 87 kts | 47° |
| 2026-05-01 11:54 | 57.18130 | 65.30550 | 372 ft | 61 kts | 46° |
| 2026-05-01 11:54 | 57.18395 | 65.31085 | 359 ft | 51 kts | 48° |
| 2026-05-01 11:54 | 57.18613 | 65.31534 | 358 ft | 37 kts | 50° |
| 2026-05-01 11:54 | 57.18707 | 65.31739 | 348 ft | 9 kts | 74° |
| 2026-05-01 11:55 | 57.18670 | 65.31851 | 333 ft | 13 kts | 137° |
| 2026-05-01 11:55 | 57.18597 | 65.31968 | 333 ft | 14 kts | 140° |
| 2026-05-01 11:55 | 57.18530 | 65.32078 | 333 ft | 12 kts | 138° |
| 2026-05-01 11:55 | 57.18473 | 65.32180 | 333 ft | 11 kts | 130° |
| 2026-05-01 11:56 | 57.18465 | 65.32322 | 330 ft | 14 kts | 86° |
| 2026-05-01 11:56 | 57.18468 | 65.32527 | 328 ft | 17 kts | 88° |
| 2026-05-01 11:56 | 57.18472 | 65.32749 | 327 ft | 17 kts | 88° |
| 2026-05-01 11:56 | 57.18475 | 65.32973 | 333 ft | 18 kts | 89° |
| 2026-05-01 11:57 | 57.18479 | 65.33207 | 334 ft | 18 kts | 88° |
| 2026-05-01 11:57 | 57.18429 | 65.33394 | 338 ft | 16 kts | 134° |
| 2026-05-01 11:57 | 57.18353 | 65.33539 | 334 ft | 16 kts | 134° |
| 2026-05-01 11:57 | 57.18281 | 65.33676 | 335 ft | 16 kts | 134° |
| 2026-05-01 11:58 | 57.18180 | 65.33861 | 336 ft | 24 kts | 134° |
| 2026-05-01 11:58 | 57.18059 | 65.34088 | 336 ft | 25 kts | 135° |
| 2026-05-01 11:58 | 57.17885 | 65.34475 | 348 ft | 12 kts | 73° |
| 2026-05-01 11:59 | 57.17951 | 65.34605 | 340 ft | 15 kts | 44° |
| 2026-05-01 11:59 | 57.18042 | 65.34664 | 338 ft | 16 kts | 324° |
| 2026-05-01 11:59 | 57.18116 | 65.34669 | 339 ft | 13 kts | 50° |
| 2026-05-01 12:00 | 57.18133 | 65.34699 | 339 ft | 0 kts | 41° |